createdAt,value
2018-03-01T00:01:27.105Z,7.45
2018-03-01T00:03:54.599Z,7.93
2018-03-01T00:06:22.103Z,8.20
2018-03-01T00:08:50.365Z,8.40
2018-03-01T00:11:17.945Z,8.20
2018-03-01T00:13:45.444Z,7.57
2018-03-01T00:16:13.058Z,9.43
2018-03-01T00:18:41.340Z,6.43
2018-03-01T00:21:09.612Z,7.97
2018-03-01T00:23:37.878Z,7.72
2018-03-01T00:26:06.135Z,6.97
2018-03-01T00:28:33.624Z,7.45
2018-03-01T00:31:01.889Z,6.62
2018-03-01T00:33:30.160Z,6.65
2018-03-01T00:35:57.732Z,7.55
2018-03-01T00:38:26.009Z,7.85
2018-03-01T00:40:55.079Z,6.90
2018-03-01T00:43:22.663Z,7.10
2018-03-01T00:45:51.041Z,6.80
2018-03-01T00:48:19.304Z,6.90
2018-03-01T00:50:47.622Z,8.85
2018-03-01T00:53:15.113Z,7.25
2018-03-01T00:55:42.697Z,8.23
2018-03-01T00:58:11.079Z,7.82
2018-03-01T01:00:39.332Z,7.75
2018-03-01T01:03:06.917Z,8.45
2018-03-01T01:05:35.184Z,7.22
2018-03-01T01:08:02.664Z,7.60
2018-03-01T01:10:30.175Z,6.37
2018-03-01T01:12:57.698Z,7.70
2018-03-01T01:15:25.197Z,6.72
2018-03-01T01:17:52.816Z,7.95
2018-03-01T01:20:20.309Z,7.43
2018-03-01T01:22:47.900Z,8.32
2018-03-01T01:25:16.164Z,8.57
2018-03-01T01:27:43.661Z,6.50
2018-03-01T01:30:11.178Z,7.18
2018-03-01T01:32:38.665Z,7.57
2018-03-01T01:35:06.216Z,7.90
2018-03-01T01:37:33.799Z,7.40
2018-03-01T01:40:01.276Z,6.93
2018-03-01T01:42:28.773Z,6.95
2018-03-01T01:44:57.024Z,7.65
2018-03-01T01:47:24.526Z,6.45
2018-03-01T01:49:52.070Z,6.78
2018-03-01T01:52:20.319Z,6.57
2018-03-01T01:54:48.561Z,7.00
2018-03-01T01:57:16.071Z,7.25
2018-03-01T01:59:44.334Z,8.68
2018-03-01T02:02:11.836Z,8.13
2018-03-01T02:04:39.325Z,6.35
2018-03-01T02:07:06.831Z,6.75
2018-03-01T02:09:35.087Z,7.65
2018-03-01T02:12:02.572Z,7.43
2018-03-01T02:14:30.078Z,6.47
2018-03-01T02:16:57.578Z,5.70
2018-03-01T02:19:25.886Z,6.18
2018-03-01T02:21:54.123Z,5.47
2018-03-01T02:24:22.373Z,5.43
2018-03-01T02:26:49.863Z,7.05
2018-03-01T02:29:18.130Z,6.00
2018-03-01T02:31:46.384Z,6.40
2018-03-01T02:34:13.880Z,5.93
2018-03-01T02:36:41.372Z,6.00
2018-03-01T02:39:08.898Z,7.05
2018-03-01T02:41:36.380Z,5.72
2018-03-01T02:44:03.894Z,7.87
2018-03-01T02:46:32.173Z,5.47
2018-03-01T02:49:00.430Z,6.75
2018-03-01T02:51:27.930Z,5.93
2018-03-01T02:53:55.473Z,5.20
2018-03-01T02:56:23.754Z,5.90
2018-03-01T02:58:51.259Z,6.15
2018-03-01T03:01:18.847Z,6.05
2018-03-01T03:03:47.116Z,6.00
2018-03-01T03:06:14.627Z,6.60
2018-03-01T03:08:42.126Z,5.12
2018-03-01T03:11:09.619Z,6.60
2018-03-01T03:13:37.154Z,5.75
2018-03-01T03:16:05.434Z,6.85
2018-03-01T03:18:33.678Z,5.97
2018-03-01T03:21:01.164Z,7.53
2018-03-01T03:23:29.416Z,5.18
2018-03-01T03:25:56.907Z,6.90
2018-03-01T03:28:25.168Z,6.53
2018-03-01T03:30:52.732Z,5.75
2018-03-01T03:33:20.986Z,6.72
2018-03-01T03:35:48.464Z,7.00
2018-03-01T03:38:16.732Z,6.72
2018-03-01T03:40:44.220Z,5.47
2018-03-01T03:43:11.749Z,6.95
2018-03-01T03:45:39.312Z,6.75
2018-03-01T03:48:06.797Z,6.68
2018-03-01T03:50:34.287Z,6.32
2018-03-01T03:53:01.885Z,5.55
2018-03-01T03:55:30.180Z,6.68
2018-03-01T03:57:58.427Z,6.85
2018-03-01T04:00:25.935Z,5.75
2018-03-01T04:02:53.433Z,7.20
2018-03-01T04:05:21.026Z,5.35
2018-03-01T04:07:49.295Z,6.80
2018-03-01T04:10:17.565Z,5.85
2018-03-01T04:12:45.834Z,5.70
2018-03-01T04:15:13.357Z,6.57
2018-03-01T04:17:40.836Z,5.60
2018-03-01T04:20:08.319Z,5.05
2018-03-01T04:22:36.581Z,6.40
2018-03-01T04:25:04.086Z,7.03
2018-03-01T04:27:31.586Z,6.15
2018-03-01T04:29:59.064Z,5.47
2018-03-01T04:32:27.330Z,6.10
2018-03-01T04:34:55.588Z,6.85
2018-03-01T04:37:23.076Z,6.50
2018-03-01T04:39:51.342Z,6.03
2018-03-01T04:42:19.569Z,7.30
2018-03-01T04:44:47.162Z,6.82
2018-03-01T04:47:14.722Z,7.00
2018-03-01T04:49:42.189Z,5.65
2018-03-01T04:52:10.464Z,7.28
2018-03-01T04:54:38.706Z,7.22
2018-03-01T04:57:06.176Z,8.10
2018-03-01T04:59:33.654Z,6.70
2018-03-01T05:02:02.023Z,7.43
2018-03-01T05:04:29.498Z,6.97
2018-03-01T05:06:57.760Z,7.37
2018-03-01T05:09:25.995Z,7.75
2018-03-01T05:11:53.528Z,6.57
2018-03-01T05:14:20.988Z,7.50
2018-03-01T05:16:48.472Z,7.25
2018-03-01T05:19:15.943Z,6.53
2018-03-01T05:21:43.395Z,7.35
2018-03-01T05:24:10.972Z,7.00
2018-03-01T05:26:38.533Z,7.10
2018-03-01T05:29:06.779Z,6.22
2018-03-01T05:31:34.236Z,6.55
2018-03-01T05:34:01.708Z,7.22
2018-03-01T05:36:29.330Z,9.88
2018-03-01T05:38:56.824Z,7.10
2018-03-01T05:41:24.284Z,7.47
2018-03-01T05:43:51.752Z,6.70
2018-03-01T05:46:19.221Z,7.97
2018-03-01T05:48:47.477Z,7.35
2018-03-01T05:51:14.961Z,10.70
2018-03-01T05:53:42.444Z,8.27
2018-03-01T05:56:09.922Z,7.35
2018-03-01T05:58:37.383Z,8.13
2018-03-01T06:01:04.852Z,8.30
2018-03-01T06:03:33.095Z,7.18
2018-03-01T06:06:00.564Z,8.90
2018-03-01T06:08:28.025Z,7.78
2018-03-01T06:10:55.506Z,8.27
2018-03-01T06:13:22.973Z,6.80
2018-03-01T06:15:50.443Z,8.65
2018-03-01T06:18:18.686Z,7.35
2018-03-01T06:20:46.191Z,7.78
2018-03-01T06:23:14.418Z,6.87
2018-03-01T06:25:41.993Z,8.85
2018-03-01T06:28:09.546Z,8.32
2018-03-01T06:30:37.010Z,9.13
2018-03-01T06:33:04.572Z,8.52
2018-03-01T06:35:32.812Z,10.13
2018-03-01T06:38:00.291Z,9.48
2018-03-01T06:40:27.761Z,6.75
2018-03-01T06:42:56.013Z,9.35
2018-03-01T06:45:23.485Z,8.80
2018-03-01T06:47:50.950Z,9.35
2018-03-01T06:50:18.506Z,8.35
2018-03-01T06:52:45.974Z,7.90
2018-03-01T06:55:14.203Z,9.50
2018-03-01T06:57:41.685Z,8.45
2018-03-01T07:00:09.145Z,8.88
2018-03-01T07:02:36.614Z,8.93
2018-03-01T07:05:04.858Z,8.93
2018-03-01T07:07:32.315Z,8.60
2018-03-01T07:09:59.801Z,10.00
2018-03-01T07:12:28.050Z,9.45
2018-03-01T07:14:55.522Z,8.70
2018-03-01T07:17:23.005Z,10.65
2018-03-01T07:19:51.255Z,9.43
2018-03-01T07:22:18.827Z,8.23
2018-03-01T07:24:47.085Z,8.80
2018-03-01T07:27:14.548Z,9.52
2018-03-01T07:29:42.044Z,9.35
2018-03-01T07:32:09.559Z,10.30
2018-03-01T07:34:37.020Z,9.10
2018-03-01T07:37:04.548Z,10.10
2018-03-01T07:39:32.736Z,10.35
2018-03-01T07:42:00.299Z,10.88
2018-03-01T07:44:27.879Z,9.40
2018-03-01T07:46:55.377Z,10.38
2018-03-01T07:49:22.832Z,10.88
2018-03-01T07:51:50.319Z,10.70
2018-03-01T07:54:17.794Z,9.45
2018-03-01T07:56:45.261Z,9.45
2018-03-01T07:59:12.732Z,9.13
2018-03-01T08:01:40.970Z,10.35
2018-03-01T08:04:08.438Z,9.88
2018-03-01T08:06:37.640Z,11.60
2018-03-01T08:09:05.127Z,10.88
2018-03-01T08:11:32.584Z,8.63
2018-03-01T08:14:00.115Z,11.15
2018-03-01T08:16:27.619Z,10.32
2018-03-01T08:18:55.228Z,10.70
2018-03-01T08:21:22.699Z,10.90
2018-03-01T08:23:50.957Z,10.48
2018-03-01T08:26:18.596Z,10.30
2018-03-01T08:28:46.182Z,9.55
2018-03-01T08:31:13.762Z,9.98
2018-03-01T08:33:41.250Z,9.48
2018-03-01T08:36:08.724Z,11.98
2018-03-01T08:38:36.244Z,12.50
2018-03-01T08:41:04.576Z,11.45
2018-03-01T08:43:32.041Z,11.57
2018-03-01T08:45:59.616Z,11.88
2018-03-01T08:48:27.905Z,10.65
2018-03-01T08:50:56.165Z,11.35
2018-03-01T08:53:24.402Z,12.43
2018-03-01T08:55:51.883Z,12.73
2018-03-01T08:58:20.467Z,11.82
2018-03-01T09:00:47.942Z,12.25
2018-03-01T09:03:16.166Z,10.77
2018-03-01T09:05:43.654Z,11.15
2018-03-01T09:08:11.130Z,10.25
2018-03-01T09:10:38.629Z,10.98
2018-03-01T09:13:06.093Z,11.50
2018-03-01T09:15:33.581Z,12.32
2018-03-01T09:18:01.060Z,11.35
2018-03-01T09:20:29.301Z,12.43
2018-03-01T09:22:57.143Z,12.23
2018-03-01T09:25:24.608Z,10.80
2018-03-01T09:27:52.087Z,11.15
2018-03-01T09:30:19.664Z,13.88
2018-03-01T09:32:48.640Z,11.18
2018-03-01T09:35:16.106Z,12.05
2018-03-01T09:37:43.594Z,11.15
2018-03-01T09:40:11.820Z,10.95
2018-03-01T09:42:39.306Z,11.95
2018-03-01T09:45:07.533Z,11.65
2018-03-01T09:47:35.020Z,13.48
2018-03-01T09:50:02.499Z,12.27
2018-03-01T09:52:30.752Z,12.37
2018-03-01T09:54:58.222Z,13.90
2018-03-01T09:57:25.885Z,14.07
2018-03-01T09:59:53.386Z,11.57
2018-03-01T10:02:21.016Z,11.65
2018-03-01T10:04:49.263Z,12.10
2018-03-01T10:07:16.754Z,11.55
2018-03-01T10:09:45.017Z,11.25
2018-03-01T10:12:13.249Z,11.32
2018-03-01T10:14:40.732Z,11.70
2018-03-01T10:17:08.195Z,12.90
2018-03-01T10:19:35.658Z,11.48
2018-03-01T10:22:04.034Z,10.82
2018-03-01T10:24:31.500Z,11.15
2018-03-01T10:26:59.775Z,12.05
2018-03-01T10:29:28.013Z,12.32
2018-03-01T10:31:55.478Z,10.07
2018-03-01T10:34:23.162Z,10.35
2018-03-01T10:36:50.624Z,9.75
2018-03-01T10:39:18.958Z,9.93
2018-03-01T10:41:46.415Z,9.07
2018-03-01T10:44:13.892Z,8.80
2018-03-01T10:46:41.348Z,10.15
2018-03-01T10:49:09.576Z,10.45
2018-03-01T10:51:37.032Z,9.60
2018-03-01T10:54:04.700Z,11.15
2018-03-01T10:56:32.212Z,10.65
2018-03-01T10:59:00.455Z,9.65
2018-03-01T11:01:32.905Z,9.57
2018-03-01T11:04:00.374Z,11.80
2018-03-01T11:06:27.867Z,9.73
2018-03-01T11:08:55.331Z,9.60
2018-03-01T11:11:22.798Z,8.90
2018-03-01T11:13:51.020Z,10.57
2018-03-01T11:16:18.498Z,9.43
2018-03-01T11:18:45.951Z,9.60
2018-03-01T11:21:13.433Z,9.13
2018-03-01T11:23:40.906Z,10.20
2018-03-01T11:26:09.163Z,9.63
2018-03-01T11:28:36.631Z,9.35
2018-03-01T11:31:04.884Z,9.68
2018-03-01T11:33:32.358Z,9.40
2018-03-01T11:35:59.811Z,9.38
2018-03-01T11:38:28.046Z,9.27
2018-03-01T11:40:55.529Z,10.40
2018-03-01T11:43:23.053Z,10.93
2018-03-01T11:45:50.523Z,10.85
2018-03-01T11:48:17.977Z,9.45
2018-03-01T11:50:45.462Z,9.98
2018-03-01T11:53:12.980Z,8.20
2018-03-01T11:55:40.437Z,9.88
2018-03-01T11:58:07.989Z,10.43
2018-03-01T12:00:35.480Z,10.20
2018-03-01T12:03:02.960Z,11.05
2018-03-01T12:05:30.426Z,10.63
2018-03-01T12:07:58.648Z,9.65
2018-03-01T12:10:26.153Z,10.43
2018-03-01T12:12:53.600Z,9.40
2018-03-01T12:15:21.091Z,9.38
2018-03-01T12:17:48.604Z,9.73
2018-03-01T12:20:16.074Z,10.00
2018-03-01T12:22:43.531Z,9.40
2018-03-01T12:25:11.090Z,9.48
2018-03-01T12:27:38.563Z,9.02
2018-03-01T12:30:06.792Z,10.15
2018-03-01T12:32:34.275Z,9.27
2018-03-01T12:35:01.759Z,10.70
2018-03-01T12:37:29.989Z,10.30
2018-03-01T12:39:57.528Z,9.50
2018-03-01T12:42:24.985Z,8.80
2018-03-01T12:44:52.568Z,8.93
2018-03-01T12:47:20.132Z,9.40
2018-03-01T12:49:47.560Z,9.77
2018-03-01T12:52:15.018Z,9.25
2018-03-01T12:54:42.508Z,8.15
2018-03-01T12:57:09.996Z,7.72
2018-03-01T12:59:37.471Z,8.68
2018-03-01T13:02:04.951Z,8.07
2018-03-01T13:04:33.301Z,9.75
2018-03-01T13:07:00.778Z,8.80
2018-03-01T13:09:28.250Z,8.20
2018-03-01T13:11:55.726Z,10.23
2018-03-01T13:14:23.211Z,9.95
2018-03-01T13:16:50.698Z,9.18
2018-03-01T13:19:18.174Z,8.75
2018-03-01T13:21:45.676Z,9.18
2018-03-01T13:24:13.910Z,8.65
2018-03-01T13:26:41.374Z,9.38
2018-03-01T13:29:09.622Z,9.38
2018-03-01T13:31:39.475Z,9.82
2018-03-01T13:34:06.940Z,10.05
2018-03-01T13:36:35.183Z,8.85
2018-03-01T13:39:02.666Z,9.30
2018-03-01T13:41:30.649Z,13.73
2018-03-01T13:43:58.891Z,16.62
2018-03-01T13:46:41.408Z,8.55
2018-03-01T13:49:08.892Z,9.55
2018-03-01T13:51:37.134Z,9.13
2018-03-01T13:54:04.600Z,9.68
2018-03-01T13:56:32.218Z,9.48
2018-03-01T13:58:59.689Z,10.27
2018-03-01T14:01:27.165Z,10.98
2018-03-01T14:03:54.641Z,10.48
2018-03-01T14:06:23.947Z,8.90
2018-03-01T14:09:07.173Z,9.00
2018-03-01T14:11:35.445Z,9.57
2018-03-01T14:14:07.234Z,9.82
2018-03-01T14:16:34.737Z,10.63
2018-03-01T14:19:17.863Z,10.18
2018-03-01T14:21:55.225Z,8.98
2018-03-01T14:27:24.548Z,9.40
2018-03-01T14:30:06.895Z,8.90
2018-03-01T14:32:34.446Z,8.70
2018-03-01T14:35:01.923Z,9.20
2018-03-01T14:37:30.287Z,10.52
2018-03-01T14:39:57.769Z,11.20
2018-03-01T14:42:25.408Z,10.45
2018-03-01T14:44:53.640Z,10.65
2018-03-01T14:47:21.139Z,9.23
2018-03-01T14:49:48.615Z,9.82
2018-03-01T14:52:16.859Z,10.50
2018-03-01T14:54:44.329Z,9.80
2018-03-01T14:57:11.787Z,12.10
2018-03-01T14:59:40.036Z,11.10
2018-03-01T15:02:07.506Z,9.90
2018-03-01T15:04:35.060Z,9.00
2018-03-01T15:07:02.630Z,10.48
2018-03-01T15:09:30.099Z,10.73
2018-03-01T15:11:58.348Z,9.70
2018-03-01T15:14:25.922Z,11.60
2018-03-01T15:16:53.388Z,10.60
2018-03-01T15:19:21.642Z,11.02
2018-03-01T15:21:49.122Z,10.85
2018-03-01T15:24:17.369Z,11.63
2018-03-01T15:26:44.947Z,11.32
2018-03-01T15:29:12.403Z,11.38
2018-03-01T15:31:39.906Z,10.77
2018-03-01T15:34:07.494Z,11.32
2018-03-01T15:36:34.970Z,12.00
2018-03-01T15:39:02.420Z,13.57
2018-03-01T15:41:29.885Z,12.50
2018-03-01T15:43:57.357Z,13.00
2018-03-01T15:46:25.078Z,13.07
2018-03-01T15:48:52.570Z,13.50
2018-03-01T15:51:20.846Z,13.10
2018-03-01T15:53:49.086Z,12.90
2018-03-01T15:56:16.664Z,12.57
2018-03-01T15:58:44.184Z,11.48
2018-03-01T16:01:12.385Z,12.77
2018-03-01T16:03:39.882Z,10.93
2018-03-01T16:06:07.438Z,12.43
2018-03-01T16:08:35.681Z,12.85
2018-03-01T16:11:03.152Z,12.55
2018-03-01T16:13:30.752Z,11.90
2018-03-01T16:15:58.184Z,11.65
2018-03-01T16:18:26.418Z,11.95
2018-03-01T16:20:53.889Z,13.75
2018-03-01T16:23:22.886Z,11.05
2018-03-01T16:25:51.109Z,11.70
2018-03-01T16:28:18.598Z,10.73
2018-03-01T16:30:48.982Z,10.88
2018-03-01T16:33:16.512Z,13.48
2018-03-01T16:35:44.078Z,12.73
2018-03-01T16:38:12.351Z,13.00
2018-03-01T16:40:39.838Z,12.90
2018-03-01T16:43:07.304Z,11.43
2018-03-01T16:45:34.776Z,11.07
2018-03-01T16:48:02.254Z,13.00
2018-03-01T16:50:29.779Z,11.60
2018-03-01T16:52:57.245Z,11.45
2018-03-01T16:55:24.845Z,12.48
2018-03-01T16:57:52.323Z,12.37
2018-03-01T17:00:20.628Z,12.00
2018-03-01T17:02:48.236Z,11.05
2018-03-01T17:05:15.713Z,12.20
2018-03-01T17:07:44.030Z,12.05
2018-03-01T17:10:11.646Z,12.05
2018-03-01T17:12:39.886Z,11.45
2018-03-01T17:15:07.351Z,11.80
2018-03-01T17:17:34.836Z,11.32
2018-03-01T17:20:03.075Z,11.95
2018-03-01T17:22:30.543Z,12.27
2018-03-01T17:24:58.134Z,12.32
2018-03-01T17:27:26.384Z,10.80
2018-03-01T17:29:53.866Z,11.05
2018-03-01T17:32:22.101Z,14.60
2018-03-01T17:34:49.618Z,13.27
2018-03-01T17:37:17.118Z,12.60
2018-03-01T17:39:44.587Z,12.35
2018-03-01T17:42:12.155Z,12.37
2018-03-01T17:44:39.620Z,12.43
2018-03-01T17:47:07.873Z,12.07
2018-03-01T17:49:35.406Z,11.75
2018-03-01T17:52:02.878Z,11.93
2018-03-01T17:54:30.361Z,13.40
2018-03-01T17:56:57.825Z,11.35
2018-03-01T17:59:26.068Z,12.43
2018-03-01T18:01:53.568Z,13.90
2018-03-01T18:04:21.048Z,11.35
2018-03-01T18:06:48.574Z,12.15
2018-03-01T18:09:16.821Z,13.02
2018-03-01T18:11:44.340Z,11.40
2018-03-01T18:14:11.830Z,12.88
2018-03-01T18:16:39.424Z,12.18
2018-03-01T18:19:07.737Z,12.10
2018-03-01T18:21:35.228Z,12.50
2018-03-01T18:24:02.692Z,12.07
2018-03-01T18:26:30.181Z,11.02
2018-03-01T18:28:58.425Z,12.00
2018-03-01T18:31:26.003Z,12.02
2018-03-01T18:33:54.281Z,13.80
2018-03-01T18:36:22.523Z,13.43
2018-03-01T18:38:50.084Z,13.13
2018-03-01T18:41:17.605Z,13.30
2018-03-01T18:43:45.109Z,14.23
2018-03-01T18:46:12.594Z,12.43
2018-03-01T18:48:40.853Z,13.35
2018-03-01T18:51:09.112Z,14.95
2018-03-01T18:53:36.614Z,12.88
2018-03-01T18:56:04.149Z,12.93
2018-03-01T18:58:32.406Z,14.70
2018-03-01T19:00:59.875Z,12.85
2018-03-01T19:03:28.131Z,12.07
2018-03-01T19:05:55.634Z,12.00
2018-03-01T19:08:23.868Z,13.38
2018-03-01T19:10:51.446Z,13.98
2018-03-01T19:13:19.711Z,11.35
2018-03-01T19:15:47.210Z,11.52
2018-03-01T19:18:14.720Z,10.90
2018-03-01T19:20:42.197Z,12.60
2018-03-01T19:23:10.452Z,12.10
2018-03-01T19:25:37.931Z,11.93
2018-03-01T19:28:06.166Z,11.88
2018-03-01T19:30:33.624Z,13.20
2018-03-01T19:33:01.097Z,14.38
2018-03-01T19:35:28.688Z,12.85
2018-03-01T19:37:57.007Z,13.43
2018-03-01T19:40:24.480Z,10.38
2018-03-01T19:42:51.958Z,11.75
2018-03-01T19:45:19.430Z,12.90
2018-03-01T19:47:47.666Z,14.70
2018-03-01T19:50:15.132Z,13.65
2018-03-01T19:52:43.382Z,12.30
2018-03-01T19:55:10.894Z,12.40
2018-03-01T19:57:39.142Z,13.00
2018-03-01T20:00:06.626Z,11.00
2018-03-01T20:02:35.031Z,13.05
2018-03-01T20:05:02.600Z,11.80
2018-03-01T20:07:30.093Z,12.98
2018-03-01T20:09:57.561Z,12.43
2018-03-01T20:12:25.823Z,11.70
2018-03-01T20:14:53.304Z,13.88
2018-03-01T20:17:20.804Z,12.57
2018-03-01T20:19:48.268Z,12.25
2018-03-01T20:22:15.761Z,12.15
2018-03-01T20:24:44.004Z,12.90
2018-03-01T20:27:11.486Z,12.37
2018-03-01T20:29:39.256Z,15.02
2018-03-01T20:32:06.832Z,12.75
2018-03-01T20:34:35.081Z,12.63
2018-03-01T20:37:02.606Z,13.05
2018-03-01T20:39:30.076Z,13.68
2018-03-01T20:41:57.563Z,13.20
2018-03-01T20:44:25.025Z,12.75
2018-03-01T20:46:52.749Z,13.95
2018-03-01T20:49:20.242Z,12.80
2018-03-01T20:51:47.719Z,13.35
2018-03-01T20:54:15.976Z,11.88
2018-03-01T20:56:43.458Z,13.40
2018-03-01T20:59:10.954Z,13.50
2018-03-01T21:01:38.422Z,12.05
2018-03-01T21:04:05.915Z,13.98
2018-03-01T21:06:33.383Z,13.55
2018-03-01T21:09:01.638Z,13.30
2018-03-01T21:11:29.124Z,13.62
2018-03-01T21:13:56.668Z,13.57
2018-03-01T21:16:24.891Z,14.07
2018-03-01T21:18:52.387Z,12.37
2018-03-01T21:21:19.944Z,12.77
2018-03-01T21:23:48.928Z,14.55
2018-03-01T21:26:16.490Z,13.60
2018-03-01T21:28:43.998Z,13.18
2018-03-01T21:31:11.479Z,13.18
2018-03-01T21:33:38.936Z,11.77
2018-03-01T21:36:06.396Z,14.20
2018-03-01T21:38:33.866Z,13.90
2018-03-01T21:41:01.448Z,14.73
2018-03-01T21:43:29.700Z,14.00
2018-03-01T21:45:57.298Z,14.75
2018-03-01T21:48:25.532Z,13.80
2018-03-01T21:50:53.014Z,14.07
2018-03-01T21:53:21.244Z,12.23
2018-03-01T21:55:48.755Z,14.45
2018-03-01T21:58:17.067Z,13.25
2018-03-01T22:00:44.540Z,13.82
2018-03-01T22:03:12.020Z,11.65
2018-03-01T22:05:40.293Z,14.43
2018-03-01T22:08:09.292Z,13.40
2018-03-01T22:10:36.759Z,13.65
2018-03-01T22:13:05.044Z,12.88
2018-03-01T22:15:33.327Z,14.25
2018-03-01T22:18:01.582Z,13.80
2018-03-01T22:20:29.082Z,13.30
2018-03-01T22:22:56.572Z,11.68
2018-03-01T22:25:24.043Z,14.23
2018-03-01T22:27:51.624Z,14.13
2018-03-01T22:30:19.875Z,12.10
2018-03-01T22:32:48.139Z,13.20
2018-03-01T22:35:15.721Z,14.25
2018-03-01T22:37:43.218Z,14.75
2018-03-01T22:40:10.693Z,13.77
2018-03-01T22:42:38.159Z,12.48
2018-03-01T22:45:05.642Z,13.75
2018-03-01T22:47:33.206Z,14.43
2018-03-01T22:50:00.740Z,15.43
2018-03-01T22:52:28.203Z,13.52
2018-03-01T22:54:55.801Z,13.40
2018-03-01T22:57:24.071Z,14.20
2018-03-01T22:59:52.327Z,14.18
2018-03-01T23:02:19.794Z,13.15
2018-03-01T23:04:48.272Z,14.00
2018-03-01T23:07:15.750Z,14.10
2018-03-01T23:09:44.108Z,12.45
2018-03-01T23:12:11.576Z,13.90
2018-03-01T23:14:39.832Z,15.95
2018-03-01T23:17:07.311Z,14.35
2018-03-01T23:19:35.575Z,14.52
2018-03-01T23:22:03.130Z,12.52
2018-03-01T23:24:30.611Z,13.75
2018-03-01T23:26:58.968Z,13.02
2018-03-01T23:29:27.192Z,16.25
2018-03-01T23:31:54.660Z,13.00
2018-03-01T23:34:22.137Z,11.88
2018-03-01T23:36:49.622Z,15.13
2018-03-01T23:39:17.854Z,13.13
2018-03-01T23:41:45.436Z,12.98
2018-03-01T23:44:12.902Z,13.43
2018-03-01T23:46:40.364Z,12.73
2018-03-01T23:49:08.599Z,12.75
2018-03-01T23:51:36.090Z,12.60
2018-03-01T23:54:03.636Z,10.90
2018-03-01T23:56:31.210Z,13.00
2018-03-01T23:58:58.698Z,12.20
